createdAt,value
2022-11-22T00:01:18.671Z,2.53
2022-11-22T00:03:45.014Z,3.63
2022-11-22T00:06:11.341Z,3.63
2022-11-22T00:08:37.672Z,3.30
2022-11-22T00:11:04.020Z,3.23
2022-11-22T00:13:30.359Z,4.13
2022-11-22T00:15:58.861Z,3.77
2022-11-22T00:18:25.200Z,3.77
2022-11-22T00:20:51.557Z,3.87
2022-11-22T00:23:17.886Z,3.00
2022-11-22T00:25:45.356Z,2.70
2022-11-22T00:28:11.701Z,4.70
2022-11-22T00:30:38.041Z,2.97
2022-11-22T00:33:04.428Z,2.70
2022-11-22T00:35:30.842Z,2.77
2022-11-22T00:37:57.166Z,2.67
2022-11-22T00:40:23.510Z,3.07
2022-11-22T00:42:49.837Z,2.90
2022-11-22T00:45:16.209Z,2.97
2022-11-22T00:47:42.546Z,3.00
2022-11-22T00:50:09.790Z,2.67
2022-11-22T00:52:36.134Z,2.87
2022-11-22T00:55:02.530Z,2.80
2022-11-22T00:57:28.875Z,2.13
2022-11-22T00:59:55.221Z,3.07
2022-11-22T01:02:21.606Z,2.40
2022-11-22T01:04:47.979Z,3.00
2022-11-22T01:07:14.371Z,2.53
2022-11-22T01:09:40.837Z,2.83
2022-11-22T01:12:07.262Z,3.40
2022-11-22T01:14:33.770Z,3.50
2022-11-22T01:17:00.332Z,2.80
2022-11-22T01:19:26.761Z,3.33
2022-11-22T01:21:53.111Z,2.87
2022-11-22T01:24:19.461Z,2.77
2022-11-22T01:26:45.927Z,2.50
2022-11-22T01:29:12.283Z,3.07
2022-11-22T01:31:38.624Z,3.77
2022-11-22T01:34:05.492Z,3.10
2022-11-22T01:36:31.847Z,3.10
2022-11-22T01:38:58.210Z,3.33
2022-11-22T01:41:24.598Z,2.80
2022-11-22T01:43:50.944Z,3.23
2022-11-22T01:46:34.319Z,3.50
2022-11-22T01:49:14.371Z,3.53
2022-11-22T01:51:46.396Z,3.83
2022-11-22T01:54:17.444Z,3.17
2022-11-22T01:56:47.978Z,2.80
2022-11-22T01:59:19.431Z,3.07
2022-11-22T02:01:46.004Z,3.07
2022-11-22T02:04:15.659Z,3.87
2022-11-22T02:07:01.518Z,3.30
2022-11-22T02:09:29.680Z,3.10
2022-11-22T02:11:58.355Z,3.83
2022-11-22T02:14:27.315Z,3.43
2022-11-22T02:16:53.937Z,3.27
2022-11-22T02:19:31.823Z,3.73
2022-11-22T02:22:06.438Z,3.00
2022-11-22T02:24:45.477Z,3.60
2022-11-22T02:27:11.857Z,3.00
2022-11-22T02:29:38.807Z,3.57
2022-11-22T02:32:05.215Z,4.30
2022-11-22T02:34:44.310Z,3.50
2022-11-22T02:37:13.711Z,3.23
2022-11-22T02:39:41.696Z,3.87
2022-11-22T02:42:08.136Z,3.63
2022-11-22T02:44:34.597Z,3.20
2022-11-22T02:47:00.994Z,3.83
2022-11-22T02:49:27.371Z,3.20
2022-11-22T02:51:53.798Z,3.90
2022-11-22T02:54:20.209Z,3.50
2022-11-22T02:56:47.124Z,3.33
2022-11-22T02:59:13.843Z,3.47
2022-11-22T03:01:40.905Z,2.97
2022-11-22T03:04:07.297Z,3.33
2022-11-22T03:06:33.712Z,3.10
2022-11-22T03:09:00.166Z,3.00
2022-11-22T03:11:26.628Z,3.20
2022-11-22T03:13:52.991Z,3.37
2022-11-22T03:16:19.330Z,2.70
2022-11-22T03:18:45.681Z,3.13
2022-11-22T03:21:12.287Z,3.37
2022-11-22T03:23:38.708Z,3.63
2022-11-22T03:26:11.888Z,3.73
2022-11-22T03:28:38.292Z,3.87
2022-11-22T03:31:06.216Z,5.00
2022-11-22T03:33:33.716Z,5.03
2022-11-22T03:36:00.163Z,4.67
2022-11-22T03:38:26.505Z,3.97
2022-11-22T03:40:52.838Z,4.00
2022-11-22T03:43:19.192Z,3.63
2022-11-22T03:45:46.947Z,5.07
2022-11-22T03:48:13.944Z,3.00
2022-11-22T03:50:40.443Z,2.93
2022-11-22T03:53:07.083Z,2.83
2022-11-22T03:55:33.791Z,4.47
2022-11-22T03:58:00.230Z,4.13
2022-11-22T04:00:26.666Z,3.83
2022-11-22T04:02:53.021Z,3.63
2022-11-22T04:05:19.386Z,3.17
2022-11-22T04:07:45.762Z,3.90
2022-11-22T04:10:13.043Z,5.97
2022-11-22T04:12:40.770Z,5.03
2022-11-22T04:15:07.480Z,3.93
2022-11-22T04:17:40.546Z,4.40
2022-11-22T04:20:28.016Z,3.37
2022-11-22T04:22:57.994Z,3.10
2022-11-22T04:25:27.314Z,5.67
2022-11-22T04:27:53.971Z,3.50
2022-11-22T04:30:21.106Z,2.77
2022-11-22T04:32:47.821Z,2.83
2022-11-22T04:35:18.366Z,3.73
2022-11-22T04:37:50.977Z,2.60
2022-11-22T04:40:17.406Z,3.10
2022-11-22T04:43:02.209Z,3.07
2022-11-22T04:45:28.540Z,3.13
2022-11-22T04:48:00.730Z,2.80
2022-11-22T04:50:48.361Z,3.30
2022-11-22T04:53:15.792Z,3.37
2022-11-22T04:55:44.540Z,3.40
2022-11-22T04:58:11.656Z,3.43
2022-11-22T05:00:38.669Z,3.40
2022-11-22T05:03:05.810Z,3.60
2022-11-22T05:05:36.558Z,3.20
2022-11-22T05:08:03.828Z,4.20
2022-11-22T05:10:50.339Z,3.00
2022-11-22T05:13:17.857Z,3.83
2022-11-22T05:15:44.286Z,3.27
2022-11-22T05:18:10.894Z,2.93
2022-11-22T05:20:37.314Z,4.03
2022-11-22T05:23:22.679Z,3.67
2022-11-22T05:25:49.134Z,3.27
2022-11-22T05:28:15.511Z,2.93
2022-11-22T05:30:42.219Z,4.43
2022-11-22T05:33:08.555Z,3.50
2022-11-22T05:35:34.945Z,3.03
2022-11-22T05:38:01.262Z,3.27
2022-11-22T05:40:27.637Z,3.00
2022-11-22T05:42:53.972Z,3.27
2022-11-22T05:45:20.315Z,3.80
2022-11-22T05:47:46.679Z,3.43
2022-11-22T05:50:13.297Z,3.17
2022-11-22T05:52:39.641Z,2.77
2022-11-22T05:55:06.613Z,3.17
2022-11-22T05:57:33.040Z,3.03
2022-11-22T05:59:59.546Z,3.23
2022-11-22T06:02:26.328Z,2.73
2022-11-22T06:04:52.706Z,2.90
2022-11-22T06:07:19.143Z,3.60
2022-11-22T06:09:45.493Z,3.93
2022-11-22T06:12:11.825Z,2.67
2022-11-22T06:14:43.002Z,2.87
2022-11-22T06:17:09.946Z,2.90
2022-11-22T06:19:36.375Z,3.03
2022-11-22T06:22:03.586Z,2.93
2022-11-22T06:24:29.976Z,2.70
2022-11-22T06:26:56.302Z,2.83
2022-11-22T06:29:22.637Z,3.53
2022-11-22T06:31:48.957Z,3.00
2022-11-22T06:34:15.313Z,3.10
2022-11-22T06:36:41.670Z,3.20
2022-11-22T06:39:08.101Z,2.27
2022-11-22T06:41:37.078Z,2.90
2022-11-22T06:44:05.924Z,2.87
2022-11-22T06:46:32.780Z,2.67
2022-11-22T06:48:59.139Z,2.60
2022-11-22T06:51:30.446Z,3.17
2022-11-22T06:53:58.063Z,4.20
2022-11-22T06:56:33.027Z,2.97
2022-11-22T06:59:03.743Z,4.23
2022-11-22T07:01:31.021Z,3.47
2022-11-22T07:03:59.273Z,3.03
2022-11-22T07:06:31.304Z,3.73
2022-11-22T07:08:59.461Z,3.40
2022-11-22T07:11:28.366Z,3.13
2022-11-22T07:14:01.722Z,3.40
2022-11-22T07:16:31.939Z,3.53
2022-11-22T07:18:59.538Z,3.63
2022-11-22T07:21:26.733Z,4.53
2022-11-22T07:23:54.678Z,4.50
2022-11-22T07:26:23.675Z,3.37
2022-11-22T07:28:50.005Z,3.40
2022-11-22T07:31:17.427Z,3.50
2022-11-22T07:33:44.672Z,4.10
2022-11-22T07:36:13.686Z,3.23
2022-11-22T07:38:40.631Z,3.30
2022-11-22T07:41:08.036Z,4.40
2022-11-22T07:43:35.030Z,3.37
2022-11-22T07:46:02.954Z,5.63
2022-11-22T07:48:29.553Z,4.93
2022-11-22T07:50:55.974Z,5.87
2022-11-22T07:53:22.343Z,6.03
2022-11-22T07:55:48.737Z,5.07
2022-11-22T07:58:15.070Z,4.27
2022-11-22T08:00:41.418Z,5.00
2022-11-22T08:03:08.714Z,4.67
2022-11-22T08:05:35.109Z,3.60
2022-11-22T08:08:01.452Z,4.33
2022-11-22T08:10:27.802Z,4.73
2022-11-22T08:12:54.150Z,3.63
2022-11-22T08:15:20.664Z,4.13
2022-11-22T08:17:47.029Z,4.17
2022-11-22T08:20:13.666Z,3.50
2022-11-22T08:22:40.825Z,3.17
2022-11-22T08:25:12.379Z,3.13
2022-11-22T08:27:43.053Z,3.47
2022-11-22T08:30:11.435Z,3.43
2022-11-22T08:32:38.271Z,2.80
2022-11-22T08:35:05.344Z,3.90
2022-11-22T08:37:31.730Z,2.73
2022-11-22T08:39:58.075Z,3.07
2022-11-22T08:42:24.473Z,3.60
2022-11-22T08:44:50.933Z,2.97
2022-11-22T08:47:17.407Z,2.77
2022-11-22T08:49:43.789Z,3.73
2022-11-22T08:52:10.202Z,3.13
2022-11-22T08:54:38.108Z,3.20
2022-11-22T08:57:05.138Z,3.20
2022-11-22T08:59:31.856Z,2.87
2022-11-22T09:01:58.516Z,3.20
2022-11-22T09:04:24.943Z,2.83
2022-11-22T09:09:38.335Z,2.47
2022-11-22T09:12:05.340Z,2.53
2022-11-22T09:14:31.823Z,2.23
2022-11-22T09:16:58.233Z,2.20
2022-11-22T09:19:24.647Z,2.60
2022-11-22T09:21:50.981Z,2.00
2022-11-22T09:24:17.421Z,2.53
2022-11-22T09:26:43.771Z,2.40
2022-11-22T09:29:10.272Z,1.90
2022-11-22T09:31:36.597Z,2.60
2022-11-22T09:34:03.077Z,2.63
2022-11-22T09:36:29.487Z,1.80
2022-11-22T09:38:56.813Z,2.83
2022-11-22T09:41:39.979Z,2.47
2022-11-22T09:44:23.488Z,2.13
2022-11-22T09:46:58.283Z,2.03
2022-11-22T09:50:10.101Z,1.93
2022-11-22T09:52:43.972Z,2.40
2022-11-22T09:55:45.258Z,2.43
2022-11-22T09:58:28.479Z,2.20
2022-11-22T10:01:02.105Z,1.83
2022-11-22T10:03:57.497Z,2.00
2022-11-22T10:06:31.990Z,2.03
2022-11-22T10:09:20.621Z,2.33
2022-11-22T10:12:09.472Z,2.70
2022-11-22T10:14:57.550Z,2.53
2022-11-22T10:17:36.624Z,2.00
2022-11-22T10:20:11.150Z,1.83
2022-11-22T10:22:37.563Z,1.80
2022-11-22T10:25:14.844Z,1.53
2022-11-22T10:27:41.879Z,2.13
2022-11-22T10:30:20.259Z,1.83
2022-11-22T10:32:52.576Z,2.10
2022-11-22T10:35:42.651Z,2.63
2022-11-22T10:38:25.792Z,2.27
2022-11-22T10:41:11.744Z,2.33
2022-11-22T10:43:55.287Z,1.60
2022-11-22T10:46:43.288Z,2.20
2022-11-22T10:49:37.565Z,1.93
2022-11-22T10:52:16.985Z,2.13
2022-11-22T10:55:22.190Z,2.27
2022-11-22T10:57:59.898Z,2.60
2022-11-22T11:00:29.525Z,2.00
2022-11-22T11:03:06.100Z,2.07
2022-11-22T11:06:00.779Z,2.33
2022-11-22T11:09:02.523Z,2.00
2022-11-22T11:11:26.584Z,1.47
2022-11-22T11:13:58.879Z,1.40
2022-11-22T11:16:28.733Z,2.37
2022-11-22T11:19:16.815Z,1.90
2022-11-22T11:21:43.841Z,1.67
2022-11-22T11:24:14.956Z,1.70
2022-11-22T11:26:43.958Z,2.10
2022-11-22T11:29:19.333Z,1.77
2022-11-22T11:31:50.794Z,1.93
2022-11-22T11:34:28.962Z,2.07
2022-11-22T11:37:00.975Z,1.60
2022-11-22T11:39:36.267Z,2.13
2022-11-22T11:42:22.448Z,1.77
2022-11-22T11:44:48.812Z,2.53
2022-11-22T11:47:34.841Z,1.60
2022-11-22T11:50:01.234Z,2.00
2022-11-22T11:52:29.697Z,1.40
2022-11-22T11:55:02.234Z,1.40
2022-11-22T11:57:36.183Z,2.33
2022-11-22T12:00:06.706Z,1.70
2022-11-22T12:02:41.833Z,1.73
2022-11-22T12:05:14.063Z,1.30
2022-11-22T12:07:44.556Z,1.60
2022-11-22T12:10:47.550Z,1.63
2022-11-22T12:13:30.045Z,1.13
2022-11-22T12:16:22.432Z,1.57
2022-11-22T12:19:04.306Z,1.30
2022-11-22T12:21:53.477Z,1.60
2022-11-22T12:25:16.571Z,1.53
2022-11-22T12:27:37.157Z,2.33
2022-11-22T12:30:03.828Z,1.30
2022-11-22T12:32:43.650Z,1.33
2022-11-22T12:35:20.287Z,1.73
2022-11-22T12:38:08.434Z,1.90
2022-11-22T12:40:55.590Z,1.37
2022-11-22T12:43:29.630Z,1.17
2022-11-22T12:46:05.680Z,1.60
2022-11-22T12:48:48.768Z,1.50
2022-11-22T12:51:24.675Z,1.70
2022-11-22T12:53:53.080Z,1.93
2022-11-22T12:56:29.816Z,1.93
2022-11-22T12:59:11.373Z,1.50
2022-11-22T13:01:52.045Z,1.73
2022-11-22T13:04:26.330Z,1.30
2022-11-22T13:06:58.474Z,1.50
2022-11-22T13:09:31.352Z,1.50
2022-11-22T13:12:03.546Z,1.20
2022-11-22T13:14:47.508Z,2.43
2022-11-22T13:17:17.160Z,1.43
2022-11-22T13:19:55.220Z,1.33
2022-11-22T13:22:28.719Z,1.70
2022-11-22T13:25:01.036Z,1.80
2022-11-22T13:27:44.773Z,1.53
2022-11-22T13:30:22.850Z,1.90
2022-11-22T13:32:55.424Z,1.73
2022-11-22T13:35:32.204Z,1.87
2022-11-22T13:38:09.482Z,1.40
2022-11-22T13:40:45.102Z,1.27
2022-11-22T13:43:15.616Z,1.80
2022-11-22T13:45:51.453Z,1.40
2022-11-22T13:48:40.288Z,1.43
2022-11-22T13:51:18.529Z,1.53
2022-11-22T13:53:46.666Z,1.23
2022-11-22T13:56:16.019Z,1.70
2022-11-22T13:58:51.136Z,1.40
2022-11-22T14:01:36.267Z,1.70
2022-11-22T14:04:19.677Z,1.40
2022-11-22T14:07:09.237Z,1.50
2022-11-22T14:09:38.072Z,1.73
2022-11-22T14:12:10.495Z,1.77
2022-11-22T14:15:10.786Z,1.53
2022-11-22T14:17:52.308Z,1.83
2022-11-22T14:20:46.551Z,1.80
2022-11-22T14:23:40.697Z,6.80
2022-11-22T14:26:21.401Z,6.07
2022-11-22T14:29:19.176Z,1.53
2022-11-22T14:32:00.583Z,1.60
2022-11-22T14:34:30.220Z,1.53
2022-11-22T14:37:18.116Z,1.80
2022-11-22T14:39:44.419Z,1.80
2022-11-22T14:42:35.633Z,1.70
2022-11-22T14:45:04.873Z,1.70
2022-11-22T14:47:35.218Z,1.90
2022-11-22T14:50:04.744Z,1.53
2022-11-22T14:52:32.936Z,2.03
2022-11-22T14:55:02.487Z,1.83
2022-11-22T14:57:31.762Z,2.83
2022-11-22T15:00:23.989Z,1.67
2022-11-22T15:03:38.278Z,1.77
2022-11-22T15:09:14.561Z,1.27
2022-11-22T15:09:53.536Z,1.50
2022-11-22T15:12:50.713Z,1.37
2022-11-22T15:59:46.795Z,4.00
2022-11-22T16:02:16.637Z,1.40
2022-11-22T16:06:05.693Z,1.43
2022-11-22T16:07:48.025Z,1.30
2022-11-22T16:10:26.451Z,4.10
2022-11-22T16:12:53.609Z,1.40
2022-11-22T16:15:37.026Z,1.77
2022-11-22T16:18:27.399Z,1.60
2022-11-22T16:21:02.245Z,1.97
2022-11-22T16:23:31.195Z,1.60
2022-11-22T16:26:17.082Z,1.93
2022-11-22T16:28:43.701Z,1.37
2022-11-22T16:31:17.395Z,1.37
2022-11-22T16:33:44.577Z,2.80
2022-11-22T16:36:16.220Z,1.50
2022-11-22T16:38:43.696Z,1.57
2022-11-22T16:41:29.138Z,1.90
2022-11-22T16:44:11.552Z,2.03
2022-11-22T16:46:39.715Z,1.63
2022-11-22T16:49:20.562Z,2.13
2022-11-22T16:51:48.529Z,1.50
2022-11-22T16:56:44.828Z,1.60
2022-11-22T16:59:14.662Z,2.93
2022-11-22T17:01:42.616Z,2.10
2022-11-22T17:04:23.601Z,2.13
2022-11-22T17:06:50.326Z,1.80
2022-11-22T17:09:16.753Z,3.27
2022-11-22T17:11:44.505Z,2.50
2022-11-22T17:14:14.517Z,3.97
2022-11-22T17:16:42.213Z,2.10
2022-11-22T17:19:30.276Z,1.70
2022-11-22T17:21:55.878Z,2.03
2022-11-22T17:24:23.696Z,2.43
2022-11-22T17:26:50.074Z,1.47
2022-11-22T17:29:35.286Z,1.60
2022-11-22T17:32:02.807Z,1.80
2022-11-22T17:34:29.753Z,2.07
2022-11-22T17:36:56.355Z,1.60
2022-11-22T17:39:22.715Z,2.00
2022-11-22T17:41:49.408Z,1.37
2022-11-22T17:44:17.849Z,1.60
2022-11-22T17:46:44.217Z,2.23
2022-11-22T17:49:15.635Z,1.70
2022-11-22T17:51:42.907Z,1.60
2022-11-22T17:54:09.464Z,1.47
2022-11-22T17:56:37.122Z,1.60
2022-11-22T17:59:04.163Z,1.63
2022-11-22T18:01:30.530Z,2.17
2022-11-22T18:03:57.059Z,1.80
2022-11-22T18:06:23.441Z,2.17
2022-11-22T18:08:49.854Z,2.73
2022-11-22T18:11:16.463Z,2.20
2022-11-22T18:13:43.703Z,2.40
2022-11-22T18:16:13.970Z,2.10
2022-11-22T18:18:57.571Z,1.83
2022-11-22T18:21:25.506Z,1.90
2022-11-22T18:23:51.937Z,2.30
2022-11-22T18:31:52.662Z,2.33
2022-11-22T18:34:19.747Z,2.20
2022-11-22T18:37:03.909Z,2.37
2022-11-22T18:39:36.808Z,3.70
2022-11-22T18:42:08.708Z,3.20
2022-11-22T18:44:35.111Z,3.10
2022-11-22T18:47:01.897Z,3.17
2022-11-22T18:49:28.447Z,3.13
2022-11-22T18:51:55.549Z,4.23
2022-11-22T18:54:22.706Z,4.80
2022-11-22T18:56:50.090Z,4.30
2022-11-22T18:59:17.127Z,4.07
2022-11-22T19:01:43.552Z,4.00
2022-11-22T19:04:14.034Z,4.60
2022-11-22T19:06:41.744Z,4.60
2022-11-22T19:09:08.971Z,3.53
2022-11-22T19:11:35.611Z,3.27
2022-11-22T19:14:02.248Z,3.73
2022-11-22T19:16:30.001Z,3.43
2022-11-22T19:18:57.546Z,3.57
2022-11-22T19:21:26.729Z,3.70
2022-11-22T19:23:54.059Z,4.10
2022-11-22T19:26:23.226Z,5.50
2022-11-22T19:28:52.009Z,3.93
2022-11-22T19:31:21.139Z,4.10
2022-11-22T19:33:48.236Z,3.80
2022-11-22T19:36:20.655Z,4.50
2022-11-22T19:38:47.883Z,3.90
2022-11-22T19:41:20.044Z,4.37
2022-11-22T19:43:47.943Z,4.00
2022-11-22T19:46:15.070Z,3.20
2022-11-22T19:48:46.866Z,4.73
2022-11-22T19:51:15.462Z,5.63
2022-11-22T19:53:42.063Z,3.47
2022-11-22T19:56:17.380Z,4.10
2022-11-22T19:58:49.440Z,3.10
2022-11-22T20:01:16.554Z,3.13
2022-11-22T20:03:43.803Z,3.10
2022-11-22T20:06:12.706Z,3.03
2022-11-22T20:08:39.666Z,3.23
2022-11-22T20:11:13.945Z,3.00
2022-11-22T20:13:43.193Z,3.20
2022-11-22T20:16:12.274Z,3.93
2022-11-22T20:18:38.660Z,3.97
2022-11-22T20:21:07.037Z,2.97
2022-11-22T20:23:33.655Z,2.93
2022-11-22T20:26:10.753Z,3.90
2022-11-22T20:28:42.056Z,2.80
2022-11-22T20:31:11.239Z,3.80
2022-11-22T20:33:40.122Z,3.27
2022-11-22T20:36:28.102Z,3.40
2022-11-22T20:38:55.303Z,3.30
2022-11-22T20:41:24.706Z,6.30
2022-11-22T20:43:51.864Z,2.90
2022-11-22T20:46:20.871Z,2.90
2022-11-22T20:48:48.886Z,2.90
2022-11-22T20:51:21.063Z,2.47
2022-11-22T20:53:47.749Z,3.20
2022-11-22T20:56:14.985Z,2.30
2022-11-22T20:58:42.356Z,3.03
2022-11-22T21:01:17.506Z,2.80
2022-11-22T21:03:44.621Z,3.40
2022-11-22T21:06:12.562Z,3.27
2022-11-22T21:08:39.485Z,2.90
2022-11-22T21:11:10.125Z,4.43
2022-11-22T21:13:36.840Z,2.77
2022-11-22T21:16:15.643Z,4.20
2022-11-22T21:18:53.706Z,2.40
2022-11-22T21:21:22.929Z,3.03
2022-11-22T21:23:51.081Z,2.77
2022-11-22T21:26:18.083Z,2.30
2022-11-22T21:28:47.564Z,2.73
2022-11-22T21:31:14.061Z,2.40
2022-11-22T21:33:42.438Z,3.13
2022-11-22T21:36:09.348Z,2.70
2022-11-22T21:38:38.234Z,2.43
2022-11-22T21:41:32.340Z,2.43
2022-11-22T21:43:55.680Z,2.53
2022-11-22T21:46:22.156Z,2.57
2022-11-22T21:48:49.910Z,2.83
2022-11-22T21:51:16.313Z,2.13
2022-11-22T21:53:42.683Z,2.83
2022-11-22T21:56:09.112Z,2.43
2022-11-22T21:58:35.447Z,2.70
2022-11-22T22:01:03.503Z,3.33
2022-11-22T22:03:30.530Z,1.97
2022-11-22T22:05:57.706Z,2.50
2022-11-22T22:08:29.234Z,2.20
2022-11-22T22:10:58.668Z,2.37
2022-11-22T22:13:25.598Z,2.40
2022-11-22T22:15:57.270Z,2.63
2022-11-22T22:18:28.734Z,3.13
2022-11-22T22:21:00.244Z,1.87
2022-11-22T22:23:26.817Z,2.20
2022-11-22T22:25:58.477Z,2.17
2022-11-22T22:28:26.429Z,2.17
2022-11-22T22:30:52.760Z,2.20
2022-11-22T22:33:19.122Z,2.17
2022-11-22T22:35:45.459Z,1.97
2022-11-22T22:38:11.804Z,2.43
2022-11-22T22:40:38.163Z,2.20
2022-11-22T22:43:04.497Z,2.13
2022-11-22T22:45:30.833Z,1.87
2022-11-22T22:47:58.114Z,2.23
2022-11-22T22:50:24.479Z,1.77
2022-11-22T22:52:50.963Z,2.20
2022-11-22T22:55:17.319Z,2.20
2022-11-22T22:57:43.646Z,1.60
2022-11-22T23:00:10.616Z,1.77
2022-11-22T23:02:37.047Z,1.90
2022-11-22T23:05:03.681Z,2.27
2022-11-22T23:07:30.120Z,1.90
2022-11-22T23:09:56.605Z,2.00
2022-11-22T23:12:22.936Z,1.97
2022-11-22T23:14:49.301Z,2.30
2022-11-22T23:17:15.638Z,2.20
2022-11-22T23:19:41.981Z,2.10
2022-11-22T23:22:08.331Z,2.70
2022-11-22T23:24:34.698Z,1.77
2022-11-22T23:27:01.176Z,3.10
2022-11-22T23:29:27.677Z,3.13
2022-11-22T23:31:54.102Z,2.60
2022-11-22T23:34:20.443Z,2.23
2022-11-22T23:36:46.811Z,2.50
2022-11-22T23:39:13.199Z,2.53
2022-11-22T23:41:39.613Z,2.97
2022-11-22T23:44:07.223Z,2.50
2022-11-22T23:46:33.704Z,3.53
2022-11-22T23:49:01.086Z,2.17
2022-11-22T23:51:29.576Z,2.50
2022-11-22T23:53:57.837Z,2.23
2022-11-22T23:56:24.935Z,3.63
2022-11-22T23:58:51.641Z,2.57
